sensor_id;sensor_type;location;lat;lon;timestamp;pressure;altitude;pressure_sealevel;temperature;humidity
60719;BME280;46567;51.660;5.824;2022-12-29T00:02:38;100010.0;;;12.1;96.0
60719;BME280;46567;51.660;5.824;2022-12-29T00:07:38;99980.0;;;12.1;96.0
60719;BME280;46567;51.660;5.824;2022-12-29T00:12:38;99960.0;;;12.1;96.0
60719;BME280;46567;51.660;5.824;2022-12-29T00:17:38;99980.0;;;12.1;96.0
60719;BME280;46567;51.660;5.824;2022-12-29T00:22:38;99980.0;;;12.0;96.0
60719;BME280;46567;51.660;5.824;2022-12-29T00:27:38;99980.0;;;12.0;96.0
60719;BME280;46567;51.660;5.824;2022-12-29T00:32:38;99970.0;;;11.9;95.5
60719;BME280;46567;51.660;5.824;2022-12-29T00:37:40;99960.0;;;11.9;95.5
60719;BME280;46567;51.660;5.824;2022-12-29T00:42:38;99960.0;;;11.7;96.0
60719;BME280;46567;51.660;5.824;2022-12-29T00:52:38;99950.0;;;11.6;96.0
60719;BME280;46567;51.660;5.824;2022-12-29T00:57:38;99940.0;;;11.6;96.5
60719;BME280;46567;51.660;5.824;2022-12-29T01:02:38;99930.0;;;11.5;97.0
60719;BME280;46567;51.660;5.824;2022-12-29T01:07:38;99930.0;;;11.5;97.5
60719;BME280;46567;51.660;5.824;2022-12-29T01:12:38;99920.0;;;11.5;98.0
60719;BME280;46567;51.660;5.824;2022-12-29T01:17:38;99930.0;;;11.6;98.5
60719;BME280;46567;51.660;5.824;2022-12-29T01:22:38;99920.0;;;11.6;98.5
60719;BME280;46567;51.660;5.824;2022-12-29T01:27:38;99910.0;;;11.7;98.5
60719;BME280;46567;51.660;5.824;2022-12-29T01:32:38;99900.0;;;11.7;98.5
60719;BME280;46567;51.660;5.824;2022-12-29T01:37:38;99910.0;;;11.8;98.5
60719;BME280;46567;51.660;5.824;2022-12-29T01:42:38;99900.0;;;11.8;98.5
60719;BME280;46567;51.660;5.824;2022-12-29T01:47:41;99880.0;;;11.8;98.5
60719;BME280;46567;51.660;5.824;2022-12-29T01:52:41;99880.0;;;11.8;98.5
60719;BME280;46567;51.660;5.824;2022-12-29T01:57:40;99880.0;;;11.8;98.0
60719;BME280;46567;51.660;5.824;2022-12-29T02:02:38;99880.0;;;11.8;98.0
60719;BME280;46567;51.660;5.824;2022-12-29T02:07:38;99890.0;;;11.9;97.5
60719;BME280;46567;51.660;5.824;2022-12-29T02:12:38;99890.0;;;11.9;97.5
60719;BME280;46567;51.660;5.824;2022-12-29T02:18:09;99880.0;;;12.0;97.0
60719;BME280;46567;51.660;5.824;2022-12-29T02:25:31;99890.0;;;12.0;96.5
60719;BME280;46567;51.660;5.824;2022-12-29T02:31:04;99890.0;;;12.1;96.5
60719;BME280;46567;51.660;5.824;2022-12-29T02:35:45;99870.0;;;12.1;96.0
60719;BME280;46567;51.660;5.824;2022-12-29T02:40:41;99890.0;;;12.2;95.5
60719;BME280;46567;51.660;5.824;2022-12-29T02:45:00;99870.0;;;12.2;95.0
60719;BME280;46567;51.660;5.824;2022-12-29T02:49:04;99870.0;;;12.3;94.5
60719;BME280;46567;51.660;5.824;2022-12-29T02:52:42;99870.0;;;12.3;94.5
60719;BME280;46567;51.660;5.824;2022-12-29T02:57:38;99860.0;;;12.3;94.0
60719;BME280;46567;51.660;5.824;2022-12-29T03:03:06;99860.0;;;12.3;94.0
60719;BME280;46567;51.660;5.824;2022-12-29T03:09:07;99870.0;;;12.2;94.0
60719;BME280;46567;51.660;5.824;2022-12-29T03:12:42;99860.0;;;12.2;94.0
60719;BME280;46567;51.660;5.824;2022-12-29T03:17:48;99860.0;;;12.2;94.0
60719;BME280;46567;51.660;5.824;2022-12-29T03:22:41;99850.0;;;12.2;94.0
60719;BME280;46567;51.660;5.824;2022-12-29T03:27:49;99860.0;;;12.2;94.0
60719;BME280;46567;51.660;5.824;2022-12-29T03:32:43;99850.0;;;12.2;93.5
60719;BME280;46567;51.660;5.824;2022-12-29T03:37:44;99860.0;;;12.2;93.5
60719;BME280;46567;51.660;5.824;2022-12-29T03:42:39;99850.0;;;12.2;94.0
60719;BME280;46567;51.660;5.824;2022-12-29T03:47:38;99840.0;;;12.2;93.5
60719;BME280;46567;51.660;5.824;2022-12-29T03:52:38;99840.0;;;12.2;93.5
60719;BME280;46567;51.660;5.824;2022-12-29T03:57:38;99840.0;;;12.1;93.5
60719;BME280;46567;51.660;5.824;2022-12-29T04:02:38;99850.0;;;12.1;93.5
60719;BME280;46567;51.660;5.824;2022-12-29T04:07:38;99840.0;;;12.1;93.5
60719;BME280;46567;51.660;5.824;2022-12-29T04:12:38;99850.0;;;12.1;93.0
60719;BME280;46567;51.660;5.824;2022-12-29T04:17:38;99860.0;;;12.1;93.5
60719;BME280;46567;51.660;5.824;2022-12-29T04:22:38;99870.0;;;12.0;93.5
60719;BME280;46567;51.660;5.824;2022-12-29T04:27:38;99860.0;;;12.0;93.5
60719;BME280;46567;51.660;5.824;2022-12-29T04:32:38;99850.0;;;11.9;93.5
60719;BME280;46567;51.660;5.824;2022-12-29T04:37:38;99860.0;;;11.8;93.5
60719;BME280;46567;51.660;5.824;2022-12-29T04:42:38;99870.0;;;11.6;94.0
60719;BME280;46567;51.660;5.824;2022-12-29T04:47:38;99860.0;;;11.5;93.5
60719;BME280;46567;51.660;5.824;2022-12-29T04:52:38;99880.0;;;11.4;94.0
60719;BME280;46567;51.660;5.824;2022-12-29T04:57:38;99890.0;;;11.3;94.0
60719;BME280;46567;51.660;5.824;2022-12-29T05:02:38;99870.0;;;11.2;93.5
60719;BME280;46567;51.660;5.824;2022-12-29T05:07:38;99880.0;;;11.2;93.5
60719;BME280;46567;51.660;5.824;2022-12-29T05:12:38;99890.0;;;11.1;93.5
60719;BME280;46567;51.660;5.824;2022-12-29T05:17:38;99900.0;;;11.0;93.5
60719;BME280;46567;51.660;5.824;2022-12-29T05:22:38;99920.0;;;11.0;93.0
60719;BME280;46567;51.660;5.824;2022-12-29T05:27:38;99920.0;;;11.0;93.0
60719;BME280;46567;51.660;5.824;2022-12-29T05:32:38;99930.0;;;11.0;92.5
60719;BME280;46567;51.660;5.824;2022-12-29T05:37:38;99950.0;;;10.9;92.5
60719;BME280;46567;51.660;5.824;2022-12-29T05:42:38;99960.0;;;10.9;92.5
60719;BME280;46567;51.660;5.824;2022-12-29T05:47:38;99950.0;;;10.8;92.0
60719;BME280;46567;51.660;5.824;2022-12-29T05:52:38;99960.0;;;10.9;92.0
60719;BME280;46567;51.660;5.824;2022-12-29T05:57:38;99960.0;;;11.0;91.5
60719;BME280;46567;51.660;5.824;2022-12-29T06:02:38;99960.0;;;11.1;91.5
60719;BME280;46567;51.660;5.824;2022-12-29T06:07:38;99970.0;;;11.1;91.0
60719;BME280;46567;51.660;5.824;2022-12-29T06:12:38;99970.0;;;11.2;90.5
60719;BME280;46567;51.660;5.824;2022-12-29T06:17:38;99980.0;;;11.2;90.0
60719;BME280;46567;51.660;5.824;2022-12-29T06:22:38;99970.0;;;11.3;90.0
60719;BME280;46567;51.660;5.824;2022-12-29T06:27:38;99970.0;;;11.3;89.5
60719;BME280;46567;51.660;5.824;2022-12-29T06:32:38;99960.0;;;11.3;89.5
60719;BME280;46567;51.660;5.824;2022-12-29T06:37:38;99960.0;;;11.3;89.0
60719;BME280;46567;51.660;5.824;2022-12-29T06:42:38;99970.0;;;11.3;88.5
60719;BME280;46567;51.660;5.824;2022-12-29T06:47:38;99950.0;;;11.3;88.0
60719;BME280;46567;51.660;5.824;2022-12-29T06:52:38;99950.0;;;11.3;87.5
60719;BME280;46567;51.660;5.824;2022-12-29T06:57:38;99950.0;;;11.3;87.5
60719;BME280;46567;51.660;5.824;2022-12-29T07:02:38;99970.0;;;11.3;87.0
60719;BME280;46567;51.660;5.824;2022-12-29T07:07:38;99970.0;;;11.3;86.5
60719;BME280;46567;51.660;5.824;2022-12-29T07:12:38;99980.0;;;11.3;86.0
60719;BME280;46567;51.660;5.824;2022-12-29T07:17:38;99990.0;;;11.3;86.0
60719;BME280;46567;51.660;5.824;2022-12-29T07:22:38;99990.0;;;11.3;86.0
60719;BME280;46567;51.660;5.824;2022-12-29T07:27:38;100000.0;;;11.4;85.5
60719;BME280;46567;51.660;5.824;2022-12-29T07:32:38;100010.0;;;11.5;85.5
60719;BME280;46567;51.660;5.824;2022-12-29T07:37:38;100020.0;;;11.5;85.0
60719;BME280;46567;51.660;5.824;2022-12-29T07:42:38;100030.0;;;11.6;85.0
60719;BME280;46567;51.660;5.824;2022-12-29T07:47:38;100030.0;;;11.6;84.0
60719;BME280;46567;51.660;5.824;2022-12-29T07:52:38;100040.0;;;11.6;83.5
60719;BME280;46567;51.660;5.824;2022-12-29T07:57:38;100040.0;;;11.5;83.0
60719;BME280;46567;51.660;5.824;2022-12-29T08:02:38;100040.0;;;11.5;82.5
60719;BME280;46567;51.660;5.824;2022-12-29T08:07:38;100050.0;;;11.4;82.5
60719;BME280;46567;51.660;5.824;2022-12-29T08:12:39;100050.0;;;11.5;82.5
60719;BME280;46567;51.660;5.824;2022-12-29T08:17:38;100050.0;;;11.5;82.5
60719;BME280;46567;51.660;5.824;2022-12-29T08:22:38;100060.0;;;11.5;82.5
60719;BME280;46567;51.660;5.824;2022-12-29T08:27:38;100070.0;;;11.6;82.5
60719;BME280;46567;51.660;5.824;2022-12-29T08:32:38;100070.0;;;11.6;82.5
60719;BME280;46567;51.660;5.824;2022-12-29T08:37:38;100070.0;;;11.6;82.0
60719;BME280;46567;51.660;5.824;2022-12-29T08:42:38;100060.0;;;11.7;82.0
60719;BME280;46567;51.660;5.824;2022-12-29T08:47:38;100070.0;;;11.7;81.5
60719;BME280;46567;51.660;5.824;2022-12-29T08:52:38;100070.0;;;11.8;81.0
60719;BME280;46567;51.660;5.824;2022-12-29T08:57:38;100070.0;;;11.8;81.0
60719;BME280;46567;51.660;5.824;2022-12-29T09:02:38;100080.0;;;11.8;81.0
60719;BME280;46567;51.660;5.824;2022-12-29T09:07:39;100070.0;;;11.9;81.0
60719;BME280;46567;51.660;5.824;2022-12-29T09:12:38;100060.0;;;12.0;80.5
60719;BME280;46567;51.660;5.824;2022-12-29T09:17:38;100070.0;;;12.0;79.5
60719;BME280;46567;51.660;5.824;2022-12-29T09:22:38;100070.0;;;12.0;79.0
60719;BME280;46567;51.660;5.824;2022-12-29T09:27:38;100070.0;;;12.1;79.5
60719;BME280;46567;51.660;5.824;2022-12-29T09:32:38;100080.0;;;12.1;79.0
60719;BME280;46567;51.660;5.824;2022-12-29T09:37:38;100090.0;;;12.1;79.0
60719;BME280;46567;51.660;5.824;2022-12-29T09:43:12;100090.0;;;12.2;78.5
60719;BME280;46567;51.660;5.824;2022-12-29T09:47:39;100090.0;;;12.2;79.0
60719;BME280;46567;51.660;5.824;2022-12-29T09:52:52;100110.0;;;12.2;78.5
60719;BME280;46567;51.660;5.824;2022-12-29T09:57:45;100130.0;;;12.1;79.0
60719;BME280;46567;51.660;5.824;2022-12-29T10:02:41;100140.0;;;12.1;78.5
60719;BME280;46567;51.660;5.824;2022-12-29T10:07:49;100130.0;;;12.1;79.0
60719;BME280;46567;51.660;5.824;2022-12-29T10:13:29;100140.0;;;12.0;79.5
60719;BME280;46567;51.660;5.824;2022-12-29T10:19:04;100150.0;;;12.0;80.0
60719;BME280;46567;51.660;5.824;2022-12-29T10:23:53;100160.0;;;11.9;80.5
60719;BME280;46567;51.660;5.824;2022-12-29T10:27:38;100150.0;;;11.8;81.0
60719;BME280;46567;51.660;5.824;2022-12-29T10:32:40;100170.0;;;11.6;81.0
60719;BME280;46567;51.660;5.824;2022-12-29T10:37:45;100170.0;;;11.6;81.5
60719;BME280;46567;51.660;5.824;2022-12-29T10:42:41;100210.0;;;11.5;82.5
60719;BME280;46567;51.660;5.824;2022-12-29T10:47:48;100200.0;;;11.4;83.0
60719;BME280;46567;51.660;5.824;2022-12-29T10:57:42;100230.0;;;11.3;83.5
60719;BME280;46567;51.660;5.824;2022-12-29T11:03:02;100250.0;;;11.3;84.0
60719;BME280;46567;51.660;5.824;2022-12-29T11:07:38;100230.0;;;11.2;84.5
60719;BME280;46567;51.660;5.824;2022-12-29T11:12:38;100250.0;;;11.2;85.0
60719;BME280;46567;51.660;5.824;2022-12-29T11:17:43;100250.0;;;11.1;85.5
60719;BME280;46567;51.660;5.824;2022-12-29T11:22:43;100250.0;;;11.2;86.0
60719;BME280;46567;51.660;5.824;2022-12-29T11:27:38;100280.0;;;11.2;85.5
60719;BME280;46567;51.660;5.824;2022-12-29T11:32:49;100280.0;;;11.2;86.0
60719;BME280;46567;51.660;5.824;2022-12-29T11:37:39;100280.0;;;11.2;86.0
60719;BME280;46567;51.660;5.824;2022-12-29T11:42:40;100290.0;;;11.1;86.0
60719;BME280;46567;51.660;5.824;2022-12-29T11:47:38;100280.0;;;11.2;86.5
60719;BME280;46567;51.660;5.824;2022-12-29T11:52:38;100300.0;;;11.2;86.0
60719;BME280;46567;51.660;5.824;2022-12-29T11:57:41;100310.0;;;11.2;86.0
60719;BME280;46567;51.660;5.824;2022-12-29T12:02:47;100310.0;;;11.2;86.0
60719;BME280;46567;51.660;5.824;2022-12-29T12:07:41;100300.0;;;11.3;86.0
60719;BME280;46567;51.660;5.824;2022-12-29T12:12:48;100300.0;;;11.3;86.0
60719;BME280;46567;51.660;5.824;2022-12-29T12:17:47;100320.0;;;11.4;85.5
60719;BME280;46567;51.660;5.824;2022-12-29T12:22:41;100320.0;;;11.5;85.5
60719;BME280;46567;51.660;5.824;2022-12-29T12:27:48;100300.0;;;11.6;85.5
60719;BME280;46567;51.660;5.824;2022-12-29T12:32:46;100300.0;;;11.6;84.5
60719;BME280;46567;51.660;5.824;2022-12-29T12:38:12;100310.0;;;11.6;84.5
60719;BME280;46567;51.660;5.824;2022-12-29T12:43:40;100320.0;;;11.6;84.5
60719;BME280;46567;51.660;5.824;2022-12-29T12:50:14;100310.0;;;11.6;84.0
60719;BME280;46567;51.660;5.824;2022-12-29T12:56:37;100320.0;;;11.6;84.0
60719;BME280;46567;51.660;5.824;2022-12-29T13:00:31;100330.0;;;11.7;84.0
60719;BME280;46567;51.660;5.824;2022-12-29T13:05:38;100330.0;;;11.8;83.5
60719;BME280;46567;51.660;5.824;2022-12-29T13:11:56;100330.0;;;11.8;83.0
60719;BME280;46567;51.660;5.824;2022-12-29T13:17:15;100340.0;;;11.9;82.5
60719;BME280;46567;51.660;5.824;2022-12-29T13:22:29;100330.0;;;11.8;82.0
60719;BME280;46567;51.660;5.824;2022-12-29T13:27:25;100330.0;;;11.9;82.0
60719;BME280;46567;51.660;5.824;2022-12-29T13:31:36;100330.0;;;11.9;81.5
60719;BME280;46567;51.660;5.824;2022-12-29T13:36:40;100340.0;;;11.9;81.5
60719;BME280;46567;51.660;5.824;2022-12-29T13:39:46;100350.0;;;11.9;82.0
60719;BME280;46567;51.660;5.824;2022-12-29T13:42:39;100360.0;;;11.8;82.0
60719;BME280;46567;51.660;5.824;2022-12-29T13:47:40;100370.0;;;11.5;82.5
60719;BME280;46567;51.660;5.824;2022-12-29T13:53:05;100380.0;;;11.2;84.0
60719;BME280;46567;51.660;5.824;2022-12-29T13:57:58;100380.0;;;10.9;85.0
60719;BME280;46567;51.660;5.824;2022-12-29T14:03:14;100390.0;;;10.8;86.0
60719;BME280;46567;51.660;5.824;2022-12-29T14:07:39;100380.0;;;10.7;86.5
60719;BME280;46567;51.660;5.824;2022-12-29T14:12:40;100380.0;;;10.7;87.0
60719;BME280;46567;51.660;5.824;2022-12-29T14:17:40;100380.0;;;10.7;87.5
60719;BME280;46567;51.660;5.824;2022-12-29T14:22:57;100390.0;;;10.6;87.5
60719;BME280;46567;51.660;5.824;2022-12-29T14:27:52;100390.0;;;10.6;87.5
60719;BME280;46567;51.660;5.824;2022-12-29T14:32:38;100400.0;;;10.6;87.5
60719;BME280;46567;51.660;5.824;2022-12-29T14:37:38;100390.0;;;10.6;88.0
60719;BME280;46567;51.660;5.824;2022-12-29T14:42:38;100390.0;;;10.5;88.0
60719;BME280;46567;51.660;5.824;2022-12-29T14:47:43;100390.0;;;10.5;88.0
60719;BME280;46567;51.660;5.824;2022-12-29T14:52:45;100400.0;;;10.4;88.5
60719;BME280;46567;51.660;5.824;2022-12-29T14:57:40;100410.0;;;10.4;88.5
60719;BME280;46567;51.660;5.824;2022-12-29T15:02:52;100420.0;;;10.4;88.5
60719;BME280;46567;51.660;5.824;2022-12-29T15:07:38;100410.0;;;10.4;88.5
60719;BME280;46567;51.660;5.824;2022-12-29T15:12:41;100420.0;;;10.4;89.0
60719;BME280;46567;51.660;5.824;2022-12-29T15:17:38;100430.0;;;10.4;89.0
60719;BME280;46567;51.660;5.824;2022-12-29T15:22:41;100420.0;;;10.4;89.0
60719;BME280;46567;51.660;5.824;2022-12-29T15:27:38;100420.0;;;10.4;89.0
60719;BME280;46567;51.660;5.824;2022-12-29T15:32:47;100430.0;;;10.4;89.0
60719;BME280;46567;51.660;5.824;2022-12-29T15:37:38;100440.0;;;10.4;89.0
60719;BME280;46567;51.660;5.824;2022-12-29T15:43:13;100440.0;;;10.4;88.5
60719;BME280;46567;51.660;5.824;2022-12-29T15:47:39;100440.0;;;10.4;88.5
60719;BME280;46567;51.660;5.824;2022-12-29T15:52:39;100450.0;;;10.3;88.0
60719;BME280;46567;51.660;5.824;2022-12-29T15:57:43;100450.0;;;10.3;88.0
60719;BME280;46567;51.660;5.824;2022-12-29T16:02:38;100450.0;;;10.3;88.0
60719;BME280;46567;51.660;5.824;2022-12-29T16:07:38;100460.0;;;10.3;87.5
60719;BME280;46567;51.660;5.824;2022-12-29T16:12:38;100460.0;;;10.2;87.5
60719;BME280;46567;51.660;5.824;2022-12-29T16:17:50;100460.0;;;10.2;87.0
60719;BME280;46567;51.660;5.824;2022-12-29T16:22:39;100470.0;;;10.2;87.0
60719;BME280;46567;51.660;5.824;2022-12-29T16:27:43;100470.0;;;10.1;87.0
60719;BME280;46567;51.660;5.824;2022-12-29T16:32:46;100470.0;;;10.1;87.0
60719;BME280;46567;51.660;5.824;2022-12-29T16:37:38;100480.0;;;10.0;87.0
60719;BME280;46567;51.660;5.824;2022-12-29T16:42:46;100490.0;;;9.9;87.0
60719;BME280;46567;51.660;5.824;2022-12-29T16:47:38;100500.0;;;9.9;86.5
60719;BME280;46567;51.660;5.824;2022-12-29T16:52:38;100510.0;;;9.8;86.5
60719;BME280;46567;51.660;5.824;2022-12-29T16:57:38;100500.0;;;9.8;86.0
60719;BME280;46567;51.660;5.824;2022-12-29T17:02:41;100510.0;;;9.7;86.0
60719;BME280;46567;51.660;5.824;2022-12-29T17:07:40;100520.0;;;9.7;86.0
60719;BME280;46567;51.660;5.824;2022-12-29T17:12:38;100530.0;;;9.6;85.5
60719;BME280;46567;51.660;5.824;2022-12-29T17:17:41;100520.0;;;9.6;85.5
60719;BME280;46567;51.660;5.824;2022-12-29T17:22:38;100530.0;;;9.5;85.5
60719;BME280;46567;51.660;5.824;2022-12-29T17:27:41;100540.0;;;9.5;85.5
60719;BME280;46567;51.660;5.824;2022-12-29T17:32:39;100540.0;;;9.4;85.5
60719;BME280;46567;51.660;5.824;2022-12-29T17:37:38;100550.0;;;9.3;85.5
60719;BME280;46567;51.660;5.824;2022-12-29T17:42:41;100550.0;;;9.3;85.5
60719;BME280;46567;51.660;5.824;2022-12-29T17:47:38;100580.0;;;9.2;85.5
60719;BME280;46567;51.660;5.824;2022-12-29T17:52:38;100570.0;;;9.2;85.0
60719;BME280;46567;51.660;5.824;2022-12-29T17:57:38;100590.0;;;9.1;85.5
60719;BME280;46567;51.660;5.824;2022-12-29T18:02:38;100590.0;;;9.0;85.5
60719;BME280;46567;51.660;5.824;2022-12-29T18:07:38;100600.0;;;9.0;85.0
60719;BME280;46567;51.660;5.824;2022-12-29T18:12:42;100610.0;;;9.0;85.0
60719;BME280;46567;51.660;5.824;2022-12-29T18:17:38;100600.0;;;8.9;85.0
60719;BME280;46567;51.660;5.824;2022-12-29T18:22:38;100610.0;;;8.9;85.0
60719;BME280;46567;51.660;5.824;2022-12-29T18:27:38;100610.0;;;8.8;85.0
60719;BME280;46567;51.660;5.824;2022-12-29T18:32:38;100620.0;;;8.8;85.0
60719;BME280;46567;51.660;5.824;2022-12-29T18:37:38;100620.0;;;8.8;85.5
60719;BME280;46567;51.660;5.824;2022-12-29T18:42:38;100610.0;;;8.7;85.5
60719;BME280;46567;51.660;5.824;2022-12-29T18:47:38;100620.0;;;8.7;85.5
60719;BME280;46567;51.660;5.824;2022-12-29T18:52:38;100630.0;;;8.7;85.5
60719;BME280;46567;51.660;5.824;2022-12-29T18:57:38;100630.0;;;8.6;85.5
60719;BME280;46567;51.660;5.824;2022-12-29T19:02:39;100640.0;;;8.6;85.5
60719;BME280;46567;51.660;5.824;2022-12-29T19:07:38;100630.0;;;8.6;85.5
60719;BME280;46567;51.660;5.824;2022-12-29T19:12:38;100630.0;;;8.6;85.5
60719;BME280;46567;51.660;5.824;2022-12-29T19:17:38;100650.0;;;8.6;85.5
60719;BME280;46567;51.660;5.824;2022-12-29T19:22:38;100650.0;;;8.6;86.0
60719;BME280;46567;51.660;5.824;2022-12-29T19:27:38;100650.0;;;8.6;86.0
60719;BME280;46567;51.660;5.824;2022-12-29T19:32:38;100650.0;;;8.6;86.0
60719;BME280;46567;51.660;5.824;2022-12-29T19:37:38;100660.0;;;8.6;86.0
60719;BME280;46567;51.660;5.824;2022-12-29T19:42:38;100660.0;;;8.6;86.0
60719;BME280;46567;51.660;5.824;2022-12-29T19:47:38;100670.0;;;8.6;86.0
60719;BME280;46567;51.660;5.824;2022-12-29T19:52:38;100680.0;;;8.6;86.5
60719;BME280;46567;51.660;5.824;2022-12-29T19:57:38;100680.0;;;8.6;86.5
60719;BME280;46567;51.660;5.824;2022-12-29T20:02:38;100680.0;;;8.6;86.5
60719;BME280;46567;51.660;5.824;2022-12-29T20:07:38;100680.0;;;8.6;86.5
60719;BME280;46567;51.660;5.824;2022-12-29T20:12:38;100690.0;;;8.6;86.0
60719;BME280;46567;51.660;5.824;2022-12-29T20:17:38;100690.0;;;8.5;86.0
60719;BME280;46567;51.660;5.824;2022-12-29T20:22:38;100700.0;;;8.5;86.0
60719;BME280;46567;51.660;5.824;2022-12-29T20:27:38;100700.0;;;8.5;86.0
60719;BME280;46567;51.660;5.824;2022-12-29T20:32:38;100710.0;;;8.5;86.0
60719;BME280;46567;51.660;5.824;2022-12-29T20:37:38;100700.0;;;8.5;86.0
60719;BME280;46567;51.660;5.824;2022-12-29T20:42:38;100710.0;;;8.5;86.0
60719;BME280;46567;51.660;5.824;2022-12-29T20:47:38;100710.0;;;8.4;86.0
60719;BME280;46567;51.660;5.824;2022-12-29T20:52:38;100710.0;;;8.4;85.5
60719;BME280;46567;51.660;5.824;2022-12-29T20:57:38;100700.0;;;8.4;85.5
60719;BME280;46567;51.660;5.824;2022-12-29T21:02:38;100720.0;;;8.4;85.5
60719;BME280;46567;51.660;5.824;2022-12-29T21:07:38;100720.0;;;8.4;85.5
60719;BME280;46567;51.660;5.824;2022-12-29T21:12:38;100730.0;;;8.3;85.5
60719;BME280;46567;51.660;5.824;2022-12-29T21:17:38;100730.0;;;8.3;85.5
60719;BME280;46567;51.660;5.824;2022-12-29T21:22:38;100730.0;;;8.3;86.0
60719;BME280;46567;51.660;5.824;2022-12-29T21:27:38;100740.0;;;8.3;85.5
60719;BME280;46567;51.660;5.824;2022-12-29T21:32:39;100730.0;;;8.3;85.5
60719;BME280;46567;51.660;5.824;2022-12-29T21:37:38;100750.0;;;8.3;85.5
60719;BME280;46567;51.660;5.824;2022-12-29T21:42:39;100750.0;;;8.2;85.5
60719;BME280;46567;51.660;5.824;2022-12-29T21:47:38;100770.0;;;8.2;85.5
60719;BME280;46567;51.660;5.824;2022-12-29T21:52:38;100760.0;;;8.2;85.5
60719;BME280;46567;51.660;5.824;2022-12-29T21:57:38;100770.0;;;8.2;85.5
60719;BME280;46567;51.660;5.824;2022-12-29T22:02:38;100780.0;;;8.2;85.5
60719;BME280;46567;51.660;5.824;2022-12-29T22:07:38;100780.0;;;8.2;85.5
60719;BME280;46567;51.660;5.824;2022-12-29T22:12:39;100790.0;;;8.2;85.5
60719;BME280;46567;51.660;5.824;2022-12-29T22:17:38;100810.0;;;8.2;85.5
60719;BME280;46567;51.660;5.824;2022-12-29T22:22:38;100810.0;;;8.1;86.0
60719;BME280;46567;51.660;5.824;2022-12-29T22:27:38;100820.0;;;8.1;86.0
60719;BME280;46567;51.660;5.824;2022-12-29T22:32:38;100830.0;;;8.1;86.0
60719;BME280;46567;51.660;5.824;2022-12-29T22:37:40;100840.0;;;8.1;86.0
60719;BME280;46567;51.660;5.824;2022-12-29T22:42:38;100840.0;;;8.1;86.0
60719;BME280;46567;51.660;5.824;2022-12-29T22:47:38;100840.0;;;8.1;86.0
60719;BME280;46567;51.660;5.824;2022-12-29T22:52:38;100840.0;;;8.1;85.5
60719;BME280;46567;51.660;5.824;2022-12-29T22:57:38;100840.0;;;8.1;85.5
60719;BME280;46567;51.660;5.824;2022-12-29T23:02:38;100850.0;;;8.1;85.5
60719;BME280;46567;51.660;5.824;2022-12-29T23:07:38;100860.0;;;8.0;85.5
60719;BME280;46567;51.660;5.824;2022-12-29T23:12:38;100870.0;;;8.0;85.5
60719;BME280;46567;51.660;5.824;2022-12-29T23:17:38;100880.0;;;8.0;85.5
60719;BME280;46567;51.660;5.824;2022-12-29T23:22:38;100890.0;;;8.0;85.5
60719;BME280;46567;51.660;5.824;2022-12-29T23:27:38;100900.0;;;7.9;85.5
60719;BME280;46567;51.660;5.824;2022-12-29T23:32:38;100900.0;;;7.9;85.5
60719;BME280;46567;51.660;5.824;2022-12-29T23:37:38;100910.0;;;7.9;85.5
60719;BME280;46567;51.660;5.824;2022-12-29T23:42:38;100920.0;;;7.9;86.0
60719;BME280;46567;51.660;5.824;2022-12-29T23:47:38;100910.0;;;7.9;86.0
60719;BME280;46567;51.660;5.824;2022-12-29T23:52:38;100920.0;;;7.8;86.0
60719;BME280;46567;51.660;5.824;2022-12-29T23:57:38;100930.0;;;7.8;86.0
